createdAt,value
2023-04-20T00:00:52.307Z,6.93
2023-04-20T00:02:55.166Z,6.93
2023-04-20T00:04:57.820Z,6.87
2023-04-20T00:07:00.552Z,6.80
2023-04-20T00:09:04.791Z,6.78
2023-04-20T00:11:08.954Z,6.73
2023-04-20T00:13:11.720Z,6.70
2023-04-20T00:15:14.384Z,6.64
2023-04-20T00:17:17.273Z,6.62
2023-04-20T00:19:21.286Z,6.62
2023-04-20T00:21:24.403Z,6.61
2023-04-20T00:23:27.035Z,6.61
2023-04-20T00:25:30.673Z,6.59
2023-04-20T00:27:33.347Z,6.62
2023-04-20T00:29:36.033Z,6.61
2023-04-20T00:31:38.619Z,6.61
2023-04-20T00:33:41.306Z,6.56
2023-04-20T00:35:43.914Z,6.56
2023-04-20T00:37:46.579Z,6.55
2023-04-20T00:39:49.373Z,6.53
2023-04-20T00:41:52.124Z,6.54
2023-04-20T00:43:54.908Z,6.49
2023-04-20T00:45:57.859Z,6.47
2023-04-20T00:48:00.801Z,6.43
2023-04-20T00:50:04.138Z,6.41
2023-04-20T00:52:09.211Z,6.39
2023-04-20T00:54:11.820Z,6.34
2023-04-20T00:56:16.673Z,6.34
2023-04-20T00:58:19.436Z,6.32
2023-04-20T01:00:22.601Z,6.29
2023-04-20T01:02:25.317Z,6.26
2023-04-20T01:04:29.323Z,6.26
2023-04-20T01:06:32.001Z,6.24
2023-04-20T01:08:34.719Z,6.23
2023-04-20T01:10:37.438Z,6.22
2023-04-20T01:12:40.465Z,6.17
2023-04-20T01:14:43.044Z,6.18
2023-04-20T01:16:47.420Z,6.17
2023-04-20T01:18:51.302Z,6.14
2023-04-20T01:20:53.964Z,6.11
2023-04-20T01:22:56.700Z,6.11
2023-04-20T01:24:59.285Z,6.10
2023-04-20T01:27:01.852Z,6.07
2023-04-20T01:29:05.043Z,6.06
2023-04-20T01:31:09.100Z,6.08
2023-04-20T01:33:11.788Z,6.08
2023-04-20T01:35:15.989Z,6.08
2023-04-20T01:37:18.614Z,6.09
2023-04-20T01:39:21.329Z,6.10
2023-04-20T01:41:24.762Z,6.10
2023-04-20T01:43:28.718Z,6.09
2023-04-20T01:45:31.386Z,6.06
2023-04-20T01:47:35.586Z,6.02
2023-04-20T01:49:38.220Z,5.92
2023-04-20T01:51:40.855Z,5.98
2023-04-20T01:53:43.439Z,5.96
2023-04-20T01:55:46.108Z,5.94
2023-04-20T01:57:48.834Z,5.92
2023-04-20T01:59:51.505Z,5.94
2023-04-20T02:01:54.176Z,5.96
2023-04-20T02:03:56.961Z,5.99
2023-04-20T02:05:59.642Z,5.97
2023-04-20T02:08:02.175Z,5.99
2023-04-20T02:10:05.668Z,6.03
2023-04-20T02:12:08.517Z,6.03
2023-04-20T02:14:11.180Z,6.05
2023-04-20T02:16:14.727Z,6.08
2023-04-20T02:18:17.581Z,6.12
2023-04-20T02:20:20.490Z,6.20
2023-04-20T02:22:23.136Z,6.24
2023-04-20T02:24:25.881Z,6.24
2023-04-20T02:26:28.430Z,6.28
2023-04-20T02:28:30.999Z,6.32
2023-04-20T02:30:33.643Z,6.34
2023-04-20T02:32:36.693Z,6.35
2023-04-20T02:34:39.332Z,6.35
2023-04-20T02:36:42.035Z,6.35
2023-04-20T02:38:44.740Z,6.37
2023-04-20T02:40:47.459Z,6.41
2023-04-20T02:42:50.088Z,6.42
2023-04-20T02:44:53.028Z,6.44
2023-04-20T02:46:56.040Z,6.42
2023-04-20T02:48:58.810Z,6.41
2023-04-20T02:51:01.361Z,6.45
2023-04-20T02:53:04.415Z,6.47
2023-04-20T02:55:07.440Z,6.48
2023-04-20T02:57:11.805Z,6.53
2023-04-20T02:59:14.403Z,6.53
2023-04-20T03:01:16.923Z,6.61
2023-04-20T03:03:21.431Z,6.63
2023-04-20T03:05:24.370Z,6.68
2023-04-20T03:07:27.196Z,6.73
2023-04-20T03:09:29.742Z,6.73
2023-04-20T03:11:32.523Z,6.81
2023-04-20T03:13:35.241Z,6.84
2023-04-20T03:15:37.870Z,6.83
2023-04-20T03:17:40.519Z,6.81
2023-04-20T03:19:43.161Z,6.87
2023-04-20T03:21:45.984Z,6.93
2023-04-20T03:23:49.590Z,6.95
2023-04-20T03:25:52.338Z,6.95
2023-04-20T03:27:54.918Z,6.96
2023-04-20T03:29:57.818Z,7.04
2023-04-20T03:32:00.416Z,7.07
2023-04-20T03:34:03.108Z,7.08
2023-04-20T03:36:06.541Z,7.15
2023-04-20T03:38:09.188Z,7.17
2023-04-20T03:40:12.399Z,7.22
2023-04-20T03:42:15.011Z,7.26
2023-04-20T03:44:17.677Z,7.31
2023-04-20T03:46:22.089Z,7.38
2023-04-20T03:48:25.961Z,7.45
2023-04-20T03:50:28.754Z,7.52
2023-04-20T03:52:31.516Z,7.58
2023-04-20T03:54:34.181Z,7.65
2023-04-20T03:56:37.204Z,7.63
2023-04-20T03:58:39.864Z,7.71
2023-04-20T04:00:42.657Z,7.81
2023-04-20T04:02:46.097Z,7.95
2023-04-20T04:04:49.111Z,8.11
2023-04-20T04:06:52.152Z,8.24
2023-04-20T04:08:54.828Z,8.45
2023-04-20T04:10:57.595Z,8.61
2023-04-20T04:13:00.688Z,8.64
2023-04-20T04:15:03.756Z,8.81
2023-04-20T04:17:08.381Z,8.96
2023-04-20T04:19:11.945Z,9.08
2023-04-20T04:21:14.603Z,9.18
2023-04-20T04:23:17.377Z,9.24
2023-04-20T04:25:20.434Z,9.36
2023-04-20T04:27:23.639Z,9.46
2023-04-20T04:29:26.281Z,9.51
2023-04-20T04:31:29.311Z,9.52
2023-04-20T04:33:34.327Z,9.57
2023-04-20T04:35:37.103Z,9.68
2023-04-20T04:37:41.666Z,9.82
2023-04-20T04:39:44.742Z,9.93
2023-04-20T04:41:47.501Z,9.98
2023-04-20T04:43:50.197Z,10.10
2023-04-20T04:45:53.747Z,10.19
2023-04-20T04:47:57.370Z,10.22
2023-04-20T04:50:02.054Z,10.30
2023-04-20T04:52:10.330Z,10.33
2023-04-20T04:54:13.136Z,10.35
2023-04-20T04:56:15.975Z,10.46
2023-04-20T04:58:18.540Z,10.54
2023-04-20T05:00:22.477Z,10.67
2023-04-20T05:02:25.367Z,10.74
2023-04-20T05:04:28.375Z,10.84
2023-04-20T05:06:31.579Z,10.94
2023-04-20T05:08:35.102Z,11.06
2023-04-20T05:10:38.032Z,11.17
2023-04-20T05:12:42.424Z,11.25
2023-04-20T05:14:45.241Z,11.34
2023-04-20T05:16:47.960Z,11.42
2023-04-20T05:18:53.391Z,11.55
2023-04-20T05:20:56.780Z,11.64
2023-04-20T05:22:59.456Z,11.74
2023-04-20T05:25:02.193Z,11.78
2023-04-20T05:27:07.384Z,11.81
2023-04-20T05:29:11.095Z,11.85
2023-04-20T05:31:13.851Z,11.85
2023-04-20T05:33:17.056Z,11.82
2023-04-20T05:35:20.744Z,11.81
2023-04-20T05:37:23.352Z,11.80
2023-04-20T05:39:26.487Z,11.80
2023-04-20T05:41:29.471Z,11.77
2023-04-20T05:43:32.556Z,11.76
2023-04-20T05:45:36.517Z,11.77
2023-04-20T05:47:39.893Z,11.78
2023-04-20T05:49:42.602Z,11.77
2023-04-20T05:51:45.885Z,11.72
2023-04-20T05:53:48.492Z,11.70
2023-04-20T05:55:51.142Z,11.64
2023-04-20T05:57:53.709Z,11.59
2023-04-20T05:59:56.388Z,11.56
2023-04-20T06:01:59.088Z,11.49
2023-04-20T06:04:01.876Z,11.46
2023-04-20T06:06:05.125Z,11.42
2023-04-20T06:08:07.695Z,11.43
2023-04-20T06:10:10.638Z,11.46
2023-04-20T06:12:13.301Z,11.54
2023-04-20T06:14:16.095Z,11.67
2023-04-20T06:16:19.036Z,11.88
2023-04-20T06:18:22.179Z,11.96
2023-04-20T06:20:25.091Z,12.10
2023-04-20T06:22:27.701Z,12.27
2023-04-20T06:24:30.369Z,12.39
2023-04-20T06:26:32.951Z,12.47
2023-04-20T06:28:36.596Z,12.72
2023-04-20T06:30:39.351Z,12.90
2023-04-20T06:32:42.161Z,13.07
2023-04-20T06:34:44.822Z,13.14
2023-04-20T06:36:47.390Z,13.27
2023-04-20T06:38:49.938Z,13.42
2023-04-20T06:40:52.785Z,13.53
2023-04-20T06:42:55.595Z,13.63
2023-04-20T06:44:58.126Z,13.70
2023-04-20T06:47:01.043Z,13.86
2023-04-20T06:49:03.792Z,13.99
2023-04-20T06:51:06.572Z,14.12
2023-04-20T06:53:09.251Z,14.33
2023-04-20T06:55:12.028Z,14.46
2023-04-20T06:57:14.618Z,14.62
2023-04-20T06:59:19.111Z,14.86
2023-04-20T07:01:22.092Z,15.10
2023-04-20T07:03:24.937Z,15.34
2023-04-20T07:05:29.053Z,15.63
2023-04-20T07:07:31.661Z,15.76
2023-04-20T07:09:34.422Z,15.93
2023-04-20T07:11:37.192Z,16.03
2023-04-20T07:13:39.858Z,16.24
2023-04-20T07:15:45.297Z,16.39
2023-04-20T07:17:47.882Z,16.45
2023-04-20T07:19:52.642Z,16.52
2023-04-20T07:21:55.173Z,16.65
2023-04-20T07:23:59.173Z,16.80
2023-04-20T07:26:01.893Z,16.90
2023-04-20T07:28:04.664Z,16.95
2023-04-20T07:30:09.072Z,16.91
2023-04-20T07:32:13.923Z,16.73
2023-04-20T07:34:17.474Z,16.64
2023-04-20T07:36:21.824Z,16.54
2023-04-20T07:38:24.637Z,16.49
2023-04-20T07:40:27.286Z,16.48
2023-04-20T07:42:29.948Z,16.46
2023-04-20T07:44:32.496Z,16.50
2023-04-20T07:46:35.256Z,16.54
2023-04-20T07:48:37.820Z,16.59
2023-04-20T07:50:40.608Z,16.61
2023-04-20T07:52:45.183Z,16.64
2023-04-20T07:54:48.513Z,16.60
2023-04-20T07:56:51.269Z,16.76
2023-04-20T07:58:53.924Z,16.83
2023-04-20T08:00:56.661Z,16.88
2023-04-20T08:02:59.502Z,17.03
2023-04-20T08:05:03.665Z,17.08
2023-04-20T08:07:08.244Z,17.06
2023-04-20T08:09:13.065Z,17.06
2023-04-20T08:11:16.172Z,17.16
2023-04-20T08:13:18.801Z,17.18
2023-04-20T08:15:21.382Z,17.11
2023-04-20T08:17:24.054Z,16.85
2023-04-20T08:19:26.750Z,16.83
2023-04-20T08:21:29.489Z,16.77
2023-04-20T08:23:32.069Z,16.72
2023-04-20T08:25:34.801Z,16.58
2023-04-20T08:27:37.701Z,16.56
2023-04-20T08:29:40.510Z,16.39
2023-04-20T08:31:43.404Z,16.32
2023-04-20T08:33:46.695Z,16.39
2023-04-20T08:35:52.856Z,16.39
2023-04-20T08:37:55.607Z,16.38
2023-04-20T08:39:58.362Z,16.50
2023-04-20T08:42:02.317Z,16.54
2023-04-20T08:44:05.078Z,16.56
2023-04-20T08:46:08.013Z,16.65
2023-04-20T08:48:11.397Z,16.68
2023-04-20T08:50:14.310Z,16.83
2023-04-20T08:52:16.921Z,16.74
2023-04-20T08:54:20.054Z,16.95
2023-04-20T08:56:37.903Z,17.20
2023-04-20T08:58:42.648Z,17.48
2023-04-20T09:00:49.574Z,17.58
2023-04-20T09:02:54.786Z,17.69
2023-04-20T09:05:05.381Z,17.82
2023-04-20T09:07:20.536Z,17.91
2023-04-20T09:09:24.344Z,18.05
2023-04-20T09:11:28.675Z,18.20
2023-04-20T09:13:33.562Z,18.02
2023-04-20T09:15:36.488Z,17.94
2023-04-20T09:17:42.285Z,17.82
2023-04-20T09:19:58.421Z,17.92
2023-04-20T09:22:06.729Z,18.29
2023-04-20T09:24:09.532Z,18.29
2023-04-20T09:26:19.043Z,18.36
2023-04-20T09:28:22.332Z,18.59
2023-04-20T09:30:26.422Z,18.95
2023-04-20T09:32:29.414Z,18.98
2023-04-20T09:34:44.228Z,18.98
2023-04-20T09:36:50.520Z,18.45
2023-04-20T09:39:11.160Z,18.34
2023-04-20T09:41:16.998Z,18.42
2023-04-20T09:43:22.317Z,18.65
2023-04-20T09:45:25.899Z,18.71
2023-04-20T09:47:30.124Z,18.88
2023-04-20T09:49:32.971Z,18.96
2023-04-20T09:51:38.615Z,19.01
2023-04-20T09:53:41.712Z,19.00
2023-04-20T09:55:48.839Z,18.85
2023-04-20T09:57:53.833Z,18.48
2023-04-20T09:59:57.690Z,18.27
2023-04-20T10:02:00.437Z,18.37
2023-04-20T10:04:09.230Z,18.59
2023-04-20T10:06:34.639Z,18.60
2023-04-20T10:08:42.765Z,18.56
2023-04-20T10:10:47.540Z,18.50
2023-04-20T10:12:58.417Z,18.51
2023-04-20T10:15:01.597Z,18.44
2023-04-20T10:17:09.708Z,18.41
2023-04-20T10:19:13.315Z,18.47
2023-04-20T10:21:15.970Z,18.47
2023-04-20T10:23:20.180Z,18.37
2023-04-20T10:25:27.032Z,18.10
2023-04-20T10:27:32.330Z,17.91
2023-04-20T10:29:36.511Z,17.92
2023-04-20T10:31:41.880Z,17.82
2023-04-20T10:34:16.244Z,18.11
2023-04-20T10:36:31.274Z,18.20
2023-04-20T10:38:35.881Z,18.50
2023-04-20T10:40:38.967Z,18.82
2023-04-20T10:42:45.343Z,18.93
2023-04-20T10:44:52.440Z,19.00
2023-04-20T10:46:56.732Z,19.26
2023-04-20T10:49:04.254Z,19.35
2023-04-20T10:51:10.790Z,19.15
2023-04-20T10:53:22.129Z,19.00
2023-04-20T10:55:26.332Z,18.92
2023-04-20T10:57:29.002Z,18.65
2023-04-20T10:59:31.640Z,18.36
2023-04-20T11:01:34.375Z,18.26
2023-04-20T11:03:37.880Z,18.24
2023-04-20T11:05:40.806Z,18.26
2023-04-20T11:07:53.828Z,18.06
2023-04-20T11:09:56.866Z,17.87
2023-04-20T11:12:02.304Z,17.73
2023-04-20T11:14:07.727Z,17.91
2023-04-20T11:16:13.107Z,18.14
2023-04-20T11:18:16.099Z,18.28
2023-04-20T11:20:18.961Z,18.69
2023-04-20T11:22:23.586Z,18.95
2023-04-20T11:24:31.244Z,19.14
2023-04-20T11:26:43.634Z,19.28
2023-04-20T11:28:56.038Z,19.09
2023-04-20T11:30:59.558Z,19.06
2023-04-20T11:33:02.311Z,19.34
2023-04-20T11:35:08.175Z,19.50
2023-04-20T11:37:13.934Z,19.58
2023-04-20T11:39:29.970Z,19.07
2023-04-20T11:41:32.557Z,18.65
2023-04-20T11:43:37.959Z,18.50
2023-04-20T11:45:41.719Z,18.68
2023-04-20T11:47:45.865Z,18.71
2023-04-20T11:49:48.473Z,18.56
2023-04-20T11:51:51.459Z,18.66
2023-04-20T11:53:54.619Z,18.99
2023-04-20T11:55:57.144Z,19.13
2023-04-20T11:57:59.767Z,19.27
2023-04-20T12:00:02.349Z,19.61
2023-04-20T12:02:09.718Z,20.00
2023-04-20T12:04:12.612Z,19.83
2023-04-20T12:06:15.567Z,19.60
2023-04-20T12:08:19.089Z,19.68
2023-04-20T12:10:22.295Z,19.86
2023-04-20T12:12:26.761Z,20.31
2023-04-20T12:14:29.409Z,20.55
2023-04-20T12:16:32.288Z,20.84
2023-04-20T12:18:35.118Z,20.60
2023-04-20T12:20:37.941Z,20.13
2023-04-20T12:22:41.079Z,20.15
2023-04-20T12:24:43.791Z,20.58
2023-04-20T12:26:47.361Z,21.11
2023-04-20T12:28:50.093Z,21.25
2023-04-20T12:30:52.835Z,21.33
2023-04-20T12:32:56.002Z,21.01
2023-04-20T12:34:59.409Z,20.83
2023-04-20T12:37:02.316Z,21.16
2023-04-20T12:39:04.969Z,21.08
2023-04-20T12:41:07.556Z,21.08
2023-04-20T12:43:10.186Z,21.13
2023-04-20T12:47:15.411Z,20.50
2023-04-20T12:49:19.281Z,20.59
2023-04-20T12:51:22.557Z,20.87
2023-04-20T12:53:25.494Z,20.97
2023-04-20T12:55:28.525Z,20.58
2023-04-20T12:57:31.306Z,20.24
2023-04-20T12:59:34.152Z,19.84
2023-04-20T13:01:37.723Z,19.79
2023-04-20T13:03:42.824Z,19.93
2023-04-20T13:05:45.955Z,20.15
2023-04-20T13:07:48.818Z,20.14
2023-04-20T13:09:52.160Z,20.07
2023-04-20T13:11:55.228Z,20.27
2023-04-20T13:13:58.381Z,20.02
2023-04-20T13:16:01.442Z,20.11
2023-04-20T13:18:05.377Z,20.47
2023-04-20T13:20:09.406Z,20.77
2023-04-20T13:22:14.592Z,21.00
2023-04-20T13:24:19.508Z,20.90
2023-04-20T13:26:22.695Z,20.40
2023-04-20T13:28:25.858Z,20.27
2023-04-20T13:30:28.908Z,20.35
2023-04-20T13:32:32.598Z,20.45
2023-04-20T13:34:35.500Z,20.43
2023-04-20T13:36:38.057Z,20.28
2023-04-20T13:38:40.590Z,20.03
2023-04-20T13:40:44.662Z,19.81
2023-04-20T13:42:47.169Z,19.55
2023-04-20T13:44:49.905Z,19.21
2023-04-20T13:46:52.517Z,19.08
2023-04-20T13:48:55.191Z,18.99
2023-04-20T13:50:58.172Z,18.94
2023-04-20T13:53:03.251Z,18.64
2023-04-20T13:55:06.287Z,18.35
2023-04-20T13:57:09.166Z,18.20
2023-04-20T13:59:12.993Z,18.10
2023-04-20T14:01:16.801Z,18.07
2023-04-20T14:03:20.407Z,18.02
2023-04-20T14:05:23.331Z,17.96
2023-04-20T14:07:25.969Z,18.05
2023-04-20T14:09:31.038Z,18.21
2023-04-20T14:11:34.450Z,18.45
2023-04-20T14:13:38.244Z,18.55
2023-04-20T14:15:41.636Z,18.63
2023-04-20T14:17:44.318Z,18.60
2023-04-20T14:19:47.119Z,18.73
2023-04-20T14:21:50.131Z,18.64
2023-04-20T14:23:53.704Z,18.46
2023-04-20T14:25:56.969Z,18.35
2023-04-20T14:27:59.568Z,18.19
2023-04-20T14:30:02.807Z,18.05
2023-04-20T14:32:08.126Z,17.94
2023-04-20T14:34:12.847Z,17.88
2023-04-20T14:36:15.590Z,17.83
2023-04-20T14:38:18.511Z,17.79
2023-04-20T14:40:21.465Z,17.71
2023-04-20T14:42:24.310Z,17.48
2023-04-20T14:44:27.275Z,17.42
2023-04-20T14:46:30.246Z,17.50
2023-04-20T14:48:33.008Z,17.65
2023-04-20T14:50:35.835Z,17.79
2023-04-20T14:52:38.522Z,17.79
2023-04-20T14:54:41.071Z,17.89
2023-04-20T14:56:43.641Z,18.03
2023-04-20T14:58:48.085Z,18.22
2023-04-20T15:00:52.119Z,18.22
2023-04-20T15:02:56.972Z,18.09
2023-04-20T15:05:00.065Z,18.01
2023-04-20T15:07:04.192Z,17.93
2023-04-20T15:09:07.499Z,17.83
2023-04-20T15:11:10.376Z,17.66
2023-04-20T15:13:13.419Z,17.51
2023-04-20T15:15:17.205Z,17.42
2023-04-20T15:17:20.017Z,17.25
2023-04-20T15:19:25.573Z,17.08
2023-04-20T15:21:28.699Z,16.94
2023-04-20T15:23:31.451Z,16.79
2023-04-20T15:25:34.041Z,16.64
2023-04-20T15:27:37.059Z,16.61
2023-04-20T15:29:39.675Z,16.53
2023-04-20T15:31:43.619Z,16.45
2023-04-20T15:33:48.124Z,16.31
2023-04-20T15:35:50.947Z,16.19
2023-04-20T15:37:53.522Z,16.12
2023-04-20T15:39:56.259Z,16.04
2023-04-20T15:41:59.388Z,15.93
2023-04-20T15:44:02.341Z,15.91
2023-04-20T15:46:05.312Z,15.83
2023-04-20T15:48:09.450Z,15.80
2023-04-20T15:50:12.682Z,15.79
2023-04-20T15:52:15.603Z,15.79
2023-04-20T15:54:23.582Z,15.76
2023-04-20T15:56:26.556Z,15.70
2023-04-20T15:58:29.176Z,15.62
2023-04-20T16:00:34.843Z,15.61
2023-04-20T16:02:41.827Z,15.57
2023-04-20T16:04:45.032Z,15.55
2023-04-20T16:06:47.835Z,15.58
2023-04-20T16:08:54.055Z,15.60
2023-04-20T16:10:56.663Z,15.63
2023-04-20T16:12:59.420Z,15.60
2023-04-20T16:15:03.904Z,15.55
2023-04-20T16:17:09.106Z,15.52
2023-04-20T16:19:13.523Z,15.50
2023-04-20T16:21:16.161Z,15.41
2023-04-20T16:23:18.896Z,15.37
2023-04-20T16:25:24.388Z,15.25
2023-04-20T16:27:27.643Z,15.29
2023-04-20T16:29:30.300Z,15.19
2023-04-20T16:31:32.932Z,15.22
2023-04-20T16:33:37.050Z,15.16
2023-04-20T16:35:40.235Z,15.17
2023-04-20T16:37:42.858Z,15.22
2023-04-20T16:39:53.952Z,15.25
2023-04-20T16:41:57.339Z,15.32
2023-04-20T16:43:59.972Z,15.34
2023-04-20T16:46:02.485Z,15.29
2023-04-20T16:48:05.269Z,15.13
2023-04-20T16:50:09.288Z,14.91
2023-04-20T16:52:12.465Z,14.59
2023-04-20T16:54:15.118Z,14.01
2023-04-20T16:56:17.650Z,13.57
2023-04-20T16:58:20.491Z,13.25
2023-04-20T17:00:23.150Z,12.91
2023-04-20T17:02:31.619Z,12.76
2023-04-20T17:04:34.883Z,12.63
2023-04-20T17:06:37.395Z,12.47
2023-04-20T17:08:40.311Z,12.35
2023-04-20T17:10:43.482Z,12.33
2023-04-20T17:12:46.607Z,12.32
2023-04-20T17:14:50.005Z,12.28
2023-04-20T17:16:54.396Z,12.20
2023-04-20T17:18:57.066Z,12.13
2023-04-20T17:21:02.362Z,12.01
2023-04-20T17:23:05.099Z,11.93
2023-04-20T17:25:09.124Z,11.91
2023-04-20T17:27:12.331Z,11.82
2023-04-20T17:29:15.059Z,11.88
2023-04-20T17:31:17.889Z,11.93
2023-04-20T17:33:21.426Z,11.97
2023-04-20T17:35:24.244Z,11.97
2023-04-20T17:37:27.837Z,11.92
2023-04-20T17:39:30.580Z,11.88
2023-04-20T17:41:35.770Z,11.84
2023-04-20T17:43:40.650Z,11.80
2023-04-20T17:45:43.417Z,11.79
2023-04-20T17:47:46.254Z,11.78
2023-04-20T17:49:49.213Z,11.83
2023-04-20T17:51:51.847Z,11.85
2023-04-20T17:53:54.819Z,11.84
2023-04-20T17:55:57.869Z,11.80
2023-04-20T17:58:00.559Z,11.82
2023-04-20T18:00:05.226Z,11.83
2023-04-20T18:02:09.440Z,11.84
2023-04-20T18:04:12.443Z,11.84
2023-04-20T18:06:15.232Z,11.87
2023-04-20T18:08:20.579Z,11.89
2023-04-20T18:10:23.125Z,11.89
2023-04-20T18:12:25.699Z,11.85
2023-04-20T18:14:28.437Z,11.76
2023-04-20T18:16:31.196Z,11.67
2023-04-20T18:18:38.037Z,11.64
2023-04-20T18:20:40.811Z,11.62
2023-04-20T18:22:43.336Z,11.59
2023-04-20T18:24:46.024Z,11.58
2023-04-20T18:26:48.726Z,11.55
2023-04-20T18:28:51.878Z,11.55
2023-04-20T18:30:56.445Z,11.56
2023-04-20T18:33:00.311Z,11.54
2023-04-20T18:35:04.141Z,11.53
2023-04-20T18:37:07.622Z,11.55
2023-04-20T18:39:10.615Z,11.55
2023-04-20T18:41:13.572Z,11.55
2023-04-20T18:43:16.172Z,11.58
2023-04-20T18:45:48.779Z,11.59
2023-04-20T18:48:03.265Z,11.59
2023-04-20T18:50:06.748Z,11.63
2023-04-20T18:52:09.427Z,11.67
2023-04-20T18:54:12.092Z,11.67
2023-04-20T18:56:14.690Z,11.74
2023-04-20T18:58:17.257Z,11.73
2023-04-20T19:00:20.300Z,11.75
2023-04-20T19:02:23.377Z,11.75
2023-04-20T19:04:26.339Z,11.76
2023-04-20T19:06:29.181Z,11.77
2023-04-20T19:08:32.476Z,11.75
2023-04-20T19:10:35.103Z,11.74
2023-04-20T19:12:38.644Z,11.74
2023-04-20T19:14:41.336Z,11.74
2023-04-20T19:16:43.938Z,11.76
2023-04-20T19:18:48.560Z,11.77
2023-04-20T19:20:51.270Z,11.76
2023-04-20T19:22:53.936Z,11.77
2023-04-20T19:24:56.517Z,11.76
2023-04-20T19:26:59.372Z,11.78
2023-04-20T19:29:01.975Z,11.81
2023-04-20T19:31:05.554Z,11.78
2023-04-20T19:33:08.425Z,11.80
2023-04-20T19:35:11.153Z,11.83
2023-04-20T19:37:13.901Z,11.81
2023-04-20T19:39:16.423Z,11.83
2023-04-20T19:41:19.075Z,11.84
2023-04-20T19:43:21.721Z,11.84
2023-04-20T19:45:24.377Z,11.83
2023-04-20T19:47:27.514Z,11.81
2023-04-20T19:49:30.201Z,11.84
2023-04-20T19:51:33.318Z,11.84
2023-04-20T19:53:36.829Z,11.81
2023-04-20T19:55:39.504Z,11.82
2023-04-20T19:57:42.118Z,11.81
2023-04-20T19:59:44.800Z,11.79
2023-04-20T20:01:48.879Z,11.79
2023-04-20T20:03:53.815Z,11.80
2023-04-20T20:05:57.026Z,11.81
2023-04-20T20:07:59.615Z,11.83
2023-04-20T20:10:03.933Z,11.85
2023-04-20T20:12:10.908Z,11.79
2023-04-20T20:14:13.553Z,11.51
2023-04-20T20:16:16.542Z,11.58
2023-04-20T20:18:20.591Z,11.56
2023-04-20T20:20:23.278Z,11.48
2023-04-20T20:22:25.936Z,11.43
2023-04-20T20:24:28.558Z,11.42
2023-04-20T20:26:31.249Z,11.42
2023-04-20T20:28:33.912Z,11.40
2023-04-20T20:30:36.593Z,11.41
2023-04-20T20:32:39.474Z,11.40
2023-04-20T20:34:42.884Z,11.35
2023-04-20T20:36:46.492Z,11.26
2023-04-20T20:38:49.025Z,11.26
2023-04-20T20:40:53.588Z,11.25
2023-04-20T20:42:56.940Z,11.21
2023-04-20T20:45:01.224Z,11.20
2023-04-20T20:47:07.165Z,11.23
2023-04-20T20:49:09.904Z,11.23
2023-04-20T20:51:12.956Z,11.19
2023-04-20T20:53:17.621Z,11.20
2023-04-20T20:55:20.169Z,11.16
2023-04-20T20:57:22.695Z,11.15
2023-04-20T20:59:25.223Z,11.11
2023-04-20T21:01:27.984Z,11.06
2023-04-20T21:03:31.485Z,11.08
2023-04-20T21:05:35.691Z,11.05
2023-04-20T21:07:39.027Z,11.05
2023-04-20T21:09:41.729Z,11.03
2023-04-20T21:11:44.522Z,10.97
2023-04-20T21:13:47.685Z,10.94
2023-04-20T21:15:50.357Z,10.89
2023-04-20T21:17:53.004Z,10.82
2023-04-20T21:19:55.782Z,10.77
2023-04-20T21:21:58.492Z,10.71
2023-04-20T21:24:01.203Z,10.65
2023-04-20T21:26:03.871Z,10.67
2023-04-20T21:28:06.432Z,10.63
2023-04-20T21:30:09.614Z,10.58
2023-04-20T21:32:12.278Z,10.53
2023-04-20T21:34:14.976Z,10.48
2023-04-20T21:36:17.605Z,10.44
2023-04-20T21:38:20.141Z,10.39
2023-04-20T21:40:25.302Z,10.35
2023-04-20T21:42:27.967Z,10.29
2023-04-20T21:44:30.501Z,10.25
2023-04-20T21:46:33.376Z,10.18
2023-04-20T21:48:36.352Z,10.15
2023-04-20T21:50:38.952Z,10.04
2023-04-20T21:52:41.576Z,10.01
2023-04-20T21:54:44.130Z,10.01
2023-04-20T21:56:47.155Z,10.02
2023-04-20T21:58:49.851Z,10.01
2023-04-20T22:00:52.500Z,10.01
2023-04-20T22:02:55.273Z,9.97
2023-04-20T22:04:58.152Z,9.96
2023-04-20T22:07:00.898Z,9.94
2023-04-20T22:09:04.769Z,9.95
2023-04-20T22:11:07.897Z,9.93
2023-04-20T22:13:10.749Z,9.89
2023-04-20T22:15:14.475Z,9.86
2023-04-20T22:17:17.898Z,9.88
2023-04-20T22:19:21.328Z,9.90
2023-04-20T22:21:23.882Z,9.88
2023-04-20T22:23:26.601Z,9.83
2023-04-20T22:25:29.204Z,9.84
2023-04-20T22:27:33.274Z,9.84
2023-04-20T22:29:35.930Z,9.82
2023-04-20T22:31:38.518Z,9.86
2023-04-20T22:33:41.168Z,9.88
2023-04-20T22:35:43.797Z,9.92
2023-04-20T22:37:48.327Z,9.91
2023-04-20T22:39:50.921Z,9.90
2023-04-20T22:41:53.477Z,9.91
2023-04-20T22:43:56.072Z,9.96
2023-04-20T22:45:58.737Z,9.95
2023-04-20T22:48:01.809Z,9.93
2023-04-20T22:50:06.132Z,9.93
2023-04-20T22:52:08.894Z,9.88
2023-04-20T22:54:11.819Z,9.81
2023-04-20T22:56:14.442Z,9.69
2023-04-20T22:58:17.058Z,9.63
2023-04-20T23:00:19.768Z,9.50
2023-04-20T23:02:22.468Z,9.44
2023-04-20T23:04:25.231Z,9.34
2023-04-20T23:06:29.810Z,9.28
2023-04-20T23:08:33.613Z,9.23
2023-04-20T23:10:36.389Z,9.21
2023-04-20T23:12:38.915Z,9.23
2023-04-20T23:14:44.421Z,9.23
2023-04-20T23:16:47.111Z,9.26
2023-04-20T23:18:49.610Z,9.24
2023-04-20T23:20:52.208Z,9.21
2023-04-20T23:22:54.825Z,9.22
2023-04-20T23:24:57.544Z,9.20
2023-04-20T23:27:00.435Z,9.21
2023-04-20T23:29:02.945Z,9.19
2023-04-20T23:31:05.562Z,9.21
2023-04-20T23:33:08.358Z,9.17
2023-04-20T23:35:11.054Z,9.07
2023-04-20T23:37:13.599Z,8.95
2023-04-20T23:39:16.572Z,8.81
2023-04-20T23:41:19.814Z,8.68
2023-04-20T23:43:22.361Z,8.58
2023-04-20T23:45:24.957Z,8.49
2023-04-20T23:47:27.600Z,8.41
2023-04-20T23:49:30.208Z,8.34
2023-04-20T23:51:32.800Z,8.25
2023-04-20T23:53:37.500Z,8.27
2023-04-20T23:55:40.116Z,8.24
2023-04-20T23:57:42.721Z,8.17
2023-04-20T23:59:45.382Z,8.15
